sensor_id;sensor_type;location;lat;lon;timestamp;temperature;humidity
21306;DHT22;10812;51.838;5.838;2023-04-01T00:01:06;9.80;99.90
21306;DHT22;10812;51.838;5.838;2023-04-01T00:03:34;9.80;99.90
21306;DHT22;10812;51.838;5.838;2023-04-01T00:06:04;9.70;99.90
21306;DHT22;10812;51.838;5.838;2023-04-01T00:08:33;9.80;99.90
21306;DHT22;10812;51.838;5.838;2023-04-01T00:11:01;9.80;99.90
21306;DHT22;10812;51.838;5.838;2023-04-01T00:13:29;9.80;99.90
21306;DHT22;10812;51.838;5.838;2023-04-01T00:15:57;9.80;99.90
21306;DHT22;10812;51.838;5.838;2023-04-01T00:18:27;9.80;99.90
21306;DHT22;10812;51.838;5.838;2023-04-01T00:20:55;9.80;99.90
21306;DHT22;10812;51.838;5.838;2023-04-01T00:23:24;9.80;99.90
21306;DHT22;10812;51.838;5.838;2023-04-01T00:25:53;9.80;99.90
21306;DHT22;10812;51.838;5.838;2023-04-01T00:28:21;9.80;99.90
21306;DHT22;10812;51.838;5.838;2023-04-01T00:30:49;9.80;99.90
21306;DHT22;10812;51.838;5.838;2023-04-01T00:33:18;9.80;99.90
21306;DHT22;10812;51.838;5.838;2023-04-01T00:35:47;9.80;99.90
21306;DHT22;10812;51.838;5.838;2023-04-01T00:38:15;9.80;99.90
21306;DHT22;10812;51.838;5.838;2023-04-01T00:40:46;9.90;99.90
21306;DHT22;10812;51.838;5.838;2023-04-01T00:43:16;9.90;99.90
21306;DHT22;10812;51.838;5.838;2023-04-01T00:45:47;9.90;99.90
21306;DHT22;10812;51.838;5.838;2023-04-01T00:48:18;9.90;99.90
21306;DHT22;10812;51.838;5.838;2023-04-01T00:50:50;9.80;99.90
21306;DHT22;10812;51.838;5.838;2023-04-01T00:53:20;9.80;99.90
21306;DHT22;10812;51.838;5.838;2023-04-01T00:55:55;9.80;99.90
21306;DHT22;10812;51.838;5.838;2023-04-01T00:58:26;9.90;99.90
21306;DHT22;10812;51.838;5.838;2023-04-01T01:00:55;9.80;99.90
21306;DHT22;10812;51.838;5.838;2023-04-01T01:03:24;9.90;99.90
21306;DHT22;10812;51.838;5.838;2023-04-01T01:06:08;9.90;99.90
21306;DHT22;10812;51.838;5.838;2023-04-01T01:08:57;9.90;99.90
21306;DHT22;10812;51.838;5.838;2023-04-01T01:11:35;9.90;99.90
21306;DHT22;10812;51.838;5.838;2023-04-01T01:14:19;9.90;99.90
21306;DHT22;10812;51.838;5.838;2023-04-01T01:16:53;9.90;99.90
21306;DHT22;10812;51.838;5.838;2023-04-01T01:19:48;9.90;99.90
21306;DHT22;10812;51.838;5.838;2023-04-01T01:22:36;9.90;99.90
21306;DHT22;10812;51.838;5.838;2023-04-01T01:25:38;9.90;99.90
21306;DHT22;10812;51.838;5.838;2023-04-01T01:28:24;9.90;99.90
21306;DHT22;10812;51.838;5.838;2023-04-01T01:30:59;9.90;99.90
21306;DHT22;10812;51.838;5.838;2023-04-01T01:33:39;9.90;99.90
21306;DHT22;10812;51.838;5.838;2023-04-01T01:36:13;9.90;99.90
21306;DHT22;10812;51.838;5.838;2023-04-01T01:38:42;9.90;99.90
21306;DHT22;10812;51.838;5.838;2023-04-01T01:41:12;9.90;99.90
21306;DHT22;10812;51.838;5.838;2023-04-01T01:43:43;9.90;99.90
21306;DHT22;10812;51.838;5.838;2023-04-01T01:46:15;9.90;99.90
21306;DHT22;10812;51.838;5.838;2023-04-01T01:48:46;9.90;99.90
21306;DHT22;10812;51.838;5.838;2023-04-01T01:51:17;9.90;99.90
21306;DHT22;10812;51.838;5.838;2023-04-01T01:53:45;9.90;99.90
21306;DHT22;10812;51.838;5.838;2023-04-01T01:56:13;9.90;99.90
21306;DHT22;10812;51.838;5.838;2023-04-01T01:58:44;9.90;99.90
21306;DHT22;10812;51.838;5.838;2023-04-01T02:01:16;10.00;99.90
21306;DHT22;10812;51.838;5.838;2023-04-01T02:03:45;9.90;99.90
21306;DHT22;10812;51.838;5.838;2023-04-01T02:06:17;9.90;99.90
21306;DHT22;10812;51.838;5.838;2023-04-01T02:08:50;9.90;99.90
21306;DHT22;10812;51.838;5.838;2023-04-01T02:11:23;9.90;99.90
21306;DHT22;10812;51.838;5.838;2023-04-01T02:13:55;9.90;99.90
21306;DHT22;10812;51.838;5.838;2023-04-01T02:16:28;9.90;99.90
21306;DHT22;10812;51.838;5.838;2023-04-01T02:18:58;9.90;99.90
21306;DHT22;10812;51.838;5.838;2023-04-01T02:21:31;9.90;99.90
21306;DHT22;10812;51.838;5.838;2023-04-01T02:24:02;9.90;99.90
21306;DHT22;10812;51.838;5.838;2023-04-01T02:26:32;9.90;99.90
21306;DHT22;10812;51.838;5.838;2023-04-01T02:29:01;9.90;99.90
21306;DHT22;10812;51.838;5.838;2023-04-01T02:31:31;9.90;99.90
21306;DHT22;10812;51.838;5.838;2023-04-01T02:34:00;9.80;99.90
21306;DHT22;10812;51.838;5.838;2023-04-01T02:36:32;9.80;99.90
21306;DHT22;10812;51.838;5.838;2023-04-01T02:39:00;9.80;99.90
21306;DHT22;10812;51.838;5.838;2023-04-01T02:41:29;9.80;99.90
21306;DHT22;10812;51.838;5.838;2023-04-01T02:43:58;9.80;99.90
21306;DHT22;10812;51.838;5.838;2023-04-01T02:46:26;9.80;99.90
21306;DHT22;10812;51.838;5.838;2023-04-01T02:48:54;9.80;99.90
21306;DHT22;10812;51.838;5.838;2023-04-01T02:51:22;9.70;99.90
21306;DHT22;10812;51.838;5.838;2023-04-01T02:53:52;9.70;99.90
21306;DHT22;10812;51.838;5.838;2023-04-01T02:56:20;9.70;99.90
21306;DHT22;10812;51.838;5.838;2023-04-01T02:58:48;9.70;99.90
21306;DHT22;10812;51.838;5.838;2023-04-01T03:06:38;9.70;99.90
21306;DHT22;10812;51.838;5.838;2023-04-01T03:09:07;9.70;99.90
21306;DHT22;10812;51.838;5.838;2023-04-01T03:11:35;9.70;99.90
21306;DHT22;10812;51.838;5.838;2023-04-01T03:14:03;9.60;99.90
21306;DHT22;10812;51.838;5.838;2023-04-01T03:16:31;9.70;99.90
21306;DHT22;10812;51.838;5.838;2023-04-01T03:19:00;9.60;99.90
21306;DHT22;10812;51.838;5.838;2023-04-01T03:21:28;9.60;99.90
21306;DHT22;10812;51.838;5.838;2023-04-01T03:23:57;9.60;99.90
21306;DHT22;10812;51.838;5.838;2023-04-01T03:26:26;9.60;99.90
21306;DHT22;10812;51.838;5.838;2023-04-01T03:28:55;9.60;99.90
21306;DHT22;10812;51.838;5.838;2023-04-01T03:31:23;9.60;99.90
21306;DHT22;10812;51.838;5.838;2023-04-01T03:33:51;9.60;99.90
21306;DHT22;10812;51.838;5.838;2023-04-01T03:36:20;9.60;99.90
21306;DHT22;10812;51.838;5.838;2023-04-01T03:38:48;9.60;99.90
21306;DHT22;10812;51.838;5.838;2023-04-01T03:41:17;9.60;99.90
21306;DHT22;10812;51.838;5.838;2023-04-01T03:43:47;9.60;99.90
21306;DHT22;10812;51.838;5.838;2023-04-01T03:46:17;9.60;99.90
21306;DHT22;10812;51.838;5.838;2023-04-01T03:48:45;9.50;99.90
21306;DHT22;10812;51.838;5.838;2023-04-01T03:51:14;9.60;99.90
21306;DHT22;10812;51.838;5.838;2023-04-01T03:53:42;9.50;99.90
21306;DHT22;10812;51.838;5.838;2023-04-01T03:56:10;9.50;99.90
21306;DHT22;10812;51.838;5.838;2023-04-01T03:58:38;9.50;99.90
21306;DHT22;10812;51.838;5.838;2023-04-01T04:01:16;9.50;99.90
21306;DHT22;10812;51.838;5.838;2023-04-01T04:03:44;9.50;99.90
21306;DHT22;10812;51.838;5.838;2023-04-01T04:06:13;9.50;99.90
21306;DHT22;10812;51.838;5.838;2023-04-01T04:08:41;9.50;99.90
21306;DHT22;10812;51.838;5.838;2023-04-01T04:11:09;9.50;99.90
21306;DHT22;10812;51.838;5.838;2023-04-01T04:13:38;9.40;99.90
21306;DHT22;10812;51.838;5.838;2023-04-01T04:16:06;9.50;99.90
21306;DHT22;10812;51.838;5.838;2023-04-01T04:18:36;9.50;99.90
21306;DHT22;10812;51.838;5.838;2023-04-01T04:21:05;9.40;99.90
21306;DHT22;10812;51.838;5.838;2023-04-01T04:23:33;9.50;99.90
21306;DHT22;10812;51.838;5.838;2023-04-01T04:26:03;9.40;99.90
21306;DHT22;10812;51.838;5.838;2023-04-01T04:28:32;9.40;99.90
21306;DHT22;10812;51.838;5.838;2023-04-01T04:31:01;9.40;99.90
21306;DHT22;10812;51.838;5.838;2023-04-01T04:33:29;9.40;99.90
21306;DHT22;10812;51.838;5.838;2023-04-01T04:35:59;9.40;99.90
21306;DHT22;10812;51.838;5.838;2023-04-01T04:38:27;9.40;99.90
21306;DHT22;10812;51.838;5.838;2023-04-01T04:40:56;9.50;99.90
21306;DHT22;10812;51.838;5.838;2023-04-01T04:43:24;9.40;99.90
21306;DHT22;10812;51.838;5.838;2023-04-01T04:45:52;9.40;99.90
21306;DHT22;10812;51.838;5.838;2023-04-01T04:48:20;9.40;99.90
21306;DHT22;10812;51.838;5.838;2023-04-01T04:50:49;9.40;99.90
21306;DHT22;10812;51.838;5.838;2023-04-01T04:53:19;9.30;99.90
21306;DHT22;10812;51.838;5.838;2023-04-01T04:55:49;9.30;99.90
21306;DHT22;10812;51.838;5.838;2023-04-01T04:58:18;9.40;99.90
21306;DHT22;10812;51.838;5.838;2023-04-01T05:00:46;9.40;99.90
21306;DHT22;10812;51.838;5.838;2023-04-01T05:03:14;9.30;99.90
21306;DHT22;10812;51.838;5.838;2023-04-01T05:05:48;9.30;99.90
21306;DHT22;10812;51.838;5.838;2023-04-01T05:08:19;9.30;99.90
21306;DHT22;10812;51.838;5.838;2023-04-01T05:10:47;9.30;99.90
21306;DHT22;10812;51.838;5.838;2023-04-01T05:13:15;9.30;99.90
21306;DHT22;10812;51.838;5.838;2023-04-01T05:15:43;9.30;99.90
21306;DHT22;10812;51.838;5.838;2023-04-01T05:18:11;9.40;99.90
21306;DHT22;10812;51.838;5.838;2023-04-01T05:20:45;9.30;99.90
21306;DHT22;10812;51.838;5.838;2023-04-01T05:23:13;9.30;99.90
21306;DHT22;10812;51.838;5.838;2023-04-01T05:25:42;9.30;99.90
21306;DHT22;10812;51.838;5.838;2023-04-01T05:28:11;9.40;99.90
21306;DHT22;10812;51.838;5.838;2023-04-01T05:30:40;9.30;99.90
21306;DHT22;10812;51.838;5.838;2023-04-01T05:33:09;9.40;99.90
21306;DHT22;10812;51.838;5.838;2023-04-01T05:35:37;9.40;99.90
21306;DHT22;10812;51.838;5.838;2023-04-01T05:38:05;9.40;99.90
21306;DHT22;10812;51.838;5.838;2023-04-01T05:40:34;9.50;99.90
21306;DHT22;10812;51.838;5.838;2023-04-01T05:43:03;9.50;99.90
21306;DHT22;10812;51.838;5.838;2023-04-01T05:45:31;9.40;99.90
21306;DHT22;10812;51.838;5.838;2023-04-01T05:48:00;9.50;99.90
21306;DHT22;10812;51.838;5.838;2023-04-01T05:50:28;9.50;99.90
21306;DHT22;10812;51.838;5.838;2023-04-01T05:52:56;9.50;99.90
21306;DHT22;10812;51.838;5.838;2023-04-01T05:55:24;9.50;99.90
21306;DHT22;10812;51.838;5.838;2023-04-01T05:57:52;9.50;99.90
21306;DHT22;10812;51.838;5.838;2023-04-01T06:00:22;9.60;99.90
21306;DHT22;10812;51.838;5.838;2023-04-01T06:02:50;9.60;99.90
21306;DHT22;10812;51.838;5.838;2023-04-01T06:05:21;9.60;99.90
21306;DHT22;10812;51.838;5.838;2023-04-01T06:07:50;9.60;99.90
21306;DHT22;10812;51.838;5.838;2023-04-01T06:10:20;9.60;99.90
21306;DHT22;10812;51.838;5.838;2023-04-01T06:12:59;9.70;99.90
21306;DHT22;10812;51.838;5.838;2023-04-01T06:15:36;9.60;99.90
21306;DHT22;10812;51.838;5.838;2023-04-01T06:18:38;9.70;99.90
21306;DHT22;10812;51.838;5.838;2023-04-01T06:21:26;9.70;99.90
21306;DHT22;10812;51.838;5.838;2023-04-01T06:24:05;9.70;99.90
21306;DHT22;10812;51.838;5.838;2023-04-01T06:26:43;9.70;99.90
21306;DHT22;10812;51.838;5.838;2023-04-01T06:29:37;9.70;99.90
21306;DHT22;10812;51.838;5.838;2023-04-01T06:32:38;9.70;99.90
21306;DHT22;10812;51.838;5.838;2023-04-01T06:35:19;9.80;99.90
21306;DHT22;10812;51.838;5.838;2023-04-01T06:38:08;9.80;99.90
21306;DHT22;10812;51.838;5.838;2023-04-01T06:40:52;9.80;99.90
21306;DHT22;10812;51.838;5.838;2023-04-01T06:43:27;9.80;99.90
21306;DHT22;10812;51.838;5.838;2023-04-01T06:46:06;9.80;99.90
21306;DHT22;10812;51.838;5.838;2023-04-01T06:48:57;9.80;99.90
21306;DHT22;10812;51.838;5.838;2023-04-01T06:51:38;9.80;99.90
21306;DHT22;10812;51.838;5.838;2023-04-01T06:54:11;9.90;99.90
21306;DHT22;10812;51.838;5.838;2023-04-01T06:56:42;9.90;99.90
21306;DHT22;10812;51.838;5.838;2023-04-01T06:59:16;9.80;99.90
21306;DHT22;10812;51.838;5.838;2023-04-01T07:01:47;9.90;99.90
21306;DHT22;10812;51.838;5.838;2023-04-01T07:04:20;9.90;99.90
21306;DHT22;10812;51.838;5.838;2023-04-01T07:06:52;9.90;99.90
21306;DHT22;10812;51.838;5.838;2023-04-01T07:09:24;9.80;99.90
21306;DHT22;10812;51.838;5.838;2023-04-01T07:11:56;9.90;99.90
21306;DHT22;10812;51.838;5.838;2023-04-01T07:14:30;9.90;99.90
21306;DHT22;10812;51.838;5.838;2023-04-01T07:17:05;9.90;99.90
21306;DHT22;10812;51.838;5.838;2023-04-01T07:19:41;9.90;99.90
21306;DHT22;10812;51.838;5.838;2023-04-01T07:22:19;9.80;99.90
21306;DHT22;10812;51.838;5.838;2023-04-01T07:24:50;9.90;99.90
21306;DHT22;10812;51.838;5.838;2023-04-01T07:27:19;9.90;99.90
21306;DHT22;10812;51.838;5.838;2023-04-01T07:29:47;9.90;99.90
21306;DHT22;10812;51.838;5.838;2023-04-01T07:32:22;9.90;99.90
21306;DHT22;10812;51.838;5.838;2023-04-01T07:35:03;10.00;99.90
21306;DHT22;10812;51.838;5.838;2023-04-01T07:37:42;9.90;99.90
21306;DHT22;10812;51.838;5.838;2023-04-01T07:40:20;10.00;99.90
21306;DHT22;10812;51.838;5.838;2023-04-01T07:43:04;9.90;99.90
21306;DHT22;10812;51.838;5.838;2023-04-01T07:45:39;9.90;99.90
21306;DHT22;10812;51.838;5.838;2023-04-01T07:48:19;9.90;99.90
21306;DHT22;10812;51.838;5.838;2023-04-01T07:50:56;10.00;99.90
21306;DHT22;10812;51.838;5.838;2023-04-01T07:53:32;10.00;99.90
21306;DHT22;10812;51.838;5.838;2023-04-01T07:56:07;10.10;99.90
21306;DHT22;10812;51.838;5.838;2023-04-01T07:58:45;10.10;99.90
21306;DHT22;10812;51.838;5.838;2023-04-01T08:01:20;10.10;99.90
21306;DHT22;10812;51.838;5.838;2023-04-01T08:04:04;10.10;99.90
21306;DHT22;10812;51.838;5.838;2023-04-01T08:06:42;10.00;99.90
21306;DHT22;10812;51.838;5.838;2023-04-01T08:09:18;9.90;99.90
21306;DHT22;10812;51.838;5.838;2023-04-01T08:12:00;9.90;99.90
21306;DHT22;10812;51.838;5.838;2023-04-01T08:14:36;9.90;99.90
21306;DHT22;10812;51.838;5.838;2023-04-01T08:17:12;10.00;99.90
21306;DHT22;10812;51.838;5.838;2023-04-01T08:19:55;10.00;99.90
21306;DHT22;10812;51.838;5.838;2023-04-01T08:22:28;10.10;99.90
21306;DHT22;10812;51.838;5.838;2023-04-01T08:25:00;10.10;99.90
21306;DHT22;10812;51.838;5.838;2023-04-01T08:27:34;10.10;99.90
21306;DHT22;10812;51.838;5.838;2023-04-01T08:30:16;10.10;99.90
21306;DHT22;10812;51.838;5.838;2023-04-01T08:32:49;10.10;99.90
21306;DHT22;10812;51.838;5.838;2023-04-01T08:35:26;10.10;99.90
21306;DHT22;10812;51.838;5.838;2023-04-01T08:38:04;10.00;99.90
21306;DHT22;10812;51.838;5.838;2023-04-01T08:40:59;10.00;99.90
21306;DHT22;10812;51.838;5.838;2023-04-01T08:44:00;10.00;99.90
21306;DHT22;10812;51.838;5.838;2023-04-01T08:46:52;10.10;99.90
21306;DHT22;10812;51.838;5.838;2023-04-01T08:49:47;10.10;99.90
21306;DHT22;10812;51.838;5.838;2023-04-01T08:52:33;10.20;99.90
21306;DHT22;10812;51.838;5.838;2023-04-01T08:55:42;10.20;99.90
21306;DHT22;10812;51.838;5.838;2023-04-01T08:58:30;10.20;99.90
21306;DHT22;10812;51.838;5.838;2023-04-01T09:01:13;10.30;99.90
21306;DHT22;10812;51.838;5.838;2023-04-01T09:03:52;10.40;99.90
21306;DHT22;10812;51.838;5.838;2023-04-01T09:06:43;10.40;99.90
21306;DHT22;10812;51.838;5.838;2023-04-01T09:09:36;10.40;99.90
21306;DHT22;10812;51.838;5.838;2023-04-01T09:12:30;10.40;99.90
21306;DHT22;10812;51.838;5.838;2023-04-01T09:18:45;10.40;99.90
21306;DHT22;10812;51.838;5.838;2023-04-01T09:21:28;10.40;99.90
21306;DHT22;10812;51.838;5.838;2023-04-01T09:27:14;10.50;99.90
21306;DHT22;10812;51.838;5.838;2023-04-01T09:30:03;10.50;99.90
21306;DHT22;10812;51.838;5.838;2023-04-01T09:32:46;10.60;99.90
21306;DHT22;10812;51.838;5.838;2023-04-01T09:35:36;10.60;99.90
21306;DHT22;10812;51.838;5.838;2023-04-01T09:38:20;10.60;99.90
21306;DHT22;10812;51.838;5.838;2023-04-01T09:40:55;10.60;99.90
21306;DHT22;10812;51.838;5.838;2023-04-01T09:43:27;10.60;99.90
21306;DHT22;10812;51.838;5.838;2023-04-01T09:46:11;10.60;99.90
21306;DHT22;10812;51.838;5.838;2023-04-01T09:55:11;10.40;99.90
21306;DHT22;10812;51.838;5.838;2023-04-01T10:13:48;10.40;99.90
21306;DHT22;10812;51.838;5.838;2023-04-01T10:17:10;10.40;99.90
21306;DHT22;10812;51.838;5.838;2023-04-01T10:23:22;10.50;99.90
21306;DHT22;10812;51.838;5.838;2023-04-01T10:26:29;10.40;99.90
21306;DHT22;10812;51.838;5.838;2023-04-01T10:29:31;10.50;99.90
21306;DHT22;10812;51.838;5.838;2023-04-01T10:32:45;10.50;99.90
21306;DHT22;10812;51.838;5.838;2023-04-01T10:35:47;10.60;99.90
21306;DHT22;10812;51.838;5.838;2023-04-01T10:56:55;10.50;99.90
21306;DHT22;10812;51.838;5.838;2023-04-01T10:59:46;10.60;99.90
21306;DHT22;10812;51.838;5.838;2023-04-01T11:05:57;10.70;99.90
21306;DHT22;10812;51.838;5.838;2023-04-01T11:12:18;10.80;99.90
21306;DHT22;10812;51.838;5.838;2023-04-01T11:15:06;10.80;99.90
21306;DHT22;10812;51.838;5.838;2023-04-01T11:18:02;10.80;99.90
21306;DHT22;10812;51.838;5.838;2023-04-01T11:21:15;10.80;99.90
21306;DHT22;10812;51.838;5.838;2023-04-01T11:24:11;10.80;99.90
21306;DHT22;10812;51.838;5.838;2023-04-01T11:26:51;10.90;99.90
21306;DHT22;10812;51.838;5.838;2023-04-01T11:29:43;11.10;99.90
21306;DHT22;10812;51.838;5.838;2023-04-01T11:32:39;11.30;99.90
21306;DHT22;10812;51.838;5.838;2023-04-01T11:35:42;11.50;99.90
21306;DHT22;10812;51.838;5.838;2023-04-01T11:38:31;11.80;99.90
21306;DHT22;10812;51.838;5.838;2023-04-01T11:41:13;12.30;99.90
21306;DHT22;10812;51.838;5.838;2023-04-01T11:43:53;12.50;99.90
21306;DHT22;10812;51.838;5.838;2023-04-01T11:46:31;12.70;99.90
21306;DHT22;10812;51.838;5.838;2023-04-01T11:49:07;12.80;99.90
21306;DHT22;10812;51.838;5.838;2023-04-01T11:52:13;12.70;99.90
21306;DHT22;10812;51.838;5.838;2023-04-01T11:55:01;12.40;99.90
21306;DHT22;10812;51.838;5.838;2023-04-01T11:57:55;12.20;99.90
21306;DHT22;10812;51.838;5.838;2023-04-01T12:06:30;12.00;99.90
21306;DHT22;10812;51.838;5.838;2023-04-01T12:09:04;11.80;99.90
21306;DHT22;10812;51.838;5.838;2023-04-01T12:11:44;11.80;99.90
21306;DHT22;10812;51.838;5.838;2023-04-01T12:14:19;11.70;99.90
21306;DHT22;10812;51.838;5.838;2023-04-01T12:16:56;11.50;99.90
21306;DHT22;10812;51.838;5.838;2023-04-01T12:19:35;11.60;99.90
21306;DHT22;10812;51.838;5.838;2023-04-01T12:25:07;11.80;99.90
21306;DHT22;10812;51.838;5.838;2023-04-01T12:27:45;11.70;99.90
21306;DHT22;10812;51.838;5.838;2023-04-01T12:30:35;11.80;99.90
21306;DHT22;10812;51.838;5.838;2023-04-01T12:33:18;11.80;99.90
21306;DHT22;10812;51.838;5.838;2023-04-01T12:35:58;11.90;99.90
21306;DHT22;10812;51.838;5.838;2023-04-01T12:38:38;11.80;99.90
21306;DHT22;10812;51.838;5.838;2023-04-01T12:41:14;11.70;99.90
21306;DHT22;10812;51.838;5.838;2023-04-01T12:44:16;11.50;99.90
21306;DHT22;10812;51.838;5.838;2023-04-01T12:50:15;11.30;99.90
21306;DHT22;10812;51.838;5.838;2023-04-01T12:52:55;11.20;99.90
21306;DHT22;10812;51.838;5.838;2023-04-01T12:55:36;11.20;99.90
21306;DHT22;10812;51.838;5.838;2023-04-01T13:01:27;11.10;99.90
21306;DHT22;10812;51.838;5.838;2023-04-01T13:04:25;10.90;99.90
21306;DHT22;10812;51.838;5.838;2023-04-01T13:07:09;11.10;99.90
21306;DHT22;10812;51.838;5.838;2023-04-01T13:09:49;11.00;99.90
21306;DHT22;10812;51.838;5.838;2023-04-01T13:12:35;10.90;99.90
21306;DHT22;10812;51.838;5.838;2023-04-01T13:15:16;11.00;99.90
21306;DHT22;10812;51.838;5.838;2023-04-01T13:17:53;11.00;99.90
21306;DHT22;10812;51.838;5.838;2023-04-01T13:20:29;10.90;99.90
21306;DHT22;10812;51.838;5.838;2023-04-01T13:23:11;10.90;99.90
21306;DHT22;10812;51.838;5.838;2023-04-01T13:25:48;10.90;99.90
21306;DHT22;10812;51.838;5.838;2023-04-01T13:28:40;11.00;99.90
21306;DHT22;10812;51.838;5.838;2023-04-01T13:31:20;10.90;99.90
21306;DHT22;10812;51.838;5.838;2023-04-01T13:34:00;10.90;99.90
21306;DHT22;10812;51.838;5.838;2023-04-01T13:36:36;11.00;99.90
21306;DHT22;10812;51.838;5.838;2023-04-01T13:39:15;11.10;99.90
21306;DHT22;10812;51.838;5.838;2023-04-01T13:42:00;11.20;99.90
21306;DHT22;10812;51.838;5.838;2023-04-01T13:44:33;11.40;99.90
21306;DHT22;10812;51.838;5.838;2023-04-01T13:50:26;11.50;99.90
21306;DHT22;10812;51.838;5.838;2023-04-01T13:56:11;11.50;99.90
21306;DHT22;10812;51.838;5.838;2023-04-01T13:59:03;11.60;99.90
21306;DHT22;10812;51.838;5.838;2023-04-01T14:01:40;11.70;99.90
21306;DHT22;10812;51.838;5.838;2023-04-01T14:04:31;11.70;99.90
21306;DHT22;10812;51.838;5.838;2023-04-01T14:07:13;11.70;99.90
21306;DHT22;10812;51.838;5.838;2023-04-01T14:10:02;11.80;99.90
21306;DHT22;10812;51.838;5.838;2023-04-01T14:12:39;11.70;99.90
21306;DHT22;10812;51.838;5.838;2023-04-01T14:15:29;11.80;99.90
21306;DHT22;10812;51.838;5.838;2023-04-01T14:18:16;11.70;99.90
21306;DHT22;10812;51.838;5.838;2023-04-01T14:20:51;11.60;99.90
21306;DHT22;10812;51.838;5.838;2023-04-01T14:23:51;11.50;99.90
21306;DHT22;10812;51.838;5.838;2023-04-01T14:26:30;11.40;99.90
21306;DHT22;10812;51.838;5.838;2023-04-01T14:29:12;11.40;99.90
21306;DHT22;10812;51.838;5.838;2023-04-01T14:31:58;11.30;99.90
21306;DHT22;10812;51.838;5.838;2023-04-01T14:34:40;11.30;99.90
21306;DHT22;10812;51.838;5.838;2023-04-01T14:37:43;11.40;99.90
21306;DHT22;10812;51.838;5.838;2023-04-01T14:40:27;11.30;99.90
21306;DHT22;10812;51.838;5.838;2023-04-01T14:43:04;11.20;99.90
21306;DHT22;10812;51.838;5.838;2023-04-01T14:45:57;11.20;99.90
21306;DHT22;10812;51.838;5.838;2023-04-01T14:48:36;11.20;99.90
21306;DHT22;10812;51.838;5.838;2023-04-01T14:51:13;11.10;99.90
21306;DHT22;10812;51.838;5.838;2023-04-01T14:53:44;11.10;99.90
21306;DHT22;10812;51.838;5.838;2023-04-01T14:56:35;11.10;99.90
21306;DHT22;10812;51.838;5.838;2023-04-01T14:59:13;11.10;99.90
21306;DHT22;10812;51.838;5.838;2023-04-01T15:01:47;11.10;99.90
21306;DHT22;10812;51.838;5.838;2023-04-01T15:04:41;11.10;99.90
21306;DHT22;10812;51.838;5.838;2023-04-01T15:07:42;11.00;99.90
21306;DHT22;10812;51.838;5.838;2023-04-01T15:10:28;11.00;99.90
21306;DHT22;10812;51.838;5.838;2023-04-01T15:13:08;11.00;99.90
21306;DHT22;10812;51.838;5.838;2023-04-01T15:15:49;11.10;99.90
21306;DHT22;10812;51.838;5.838;2023-04-01T15:18:29;11.20;99.90
21306;DHT22;10812;51.838;5.838;2023-04-01T15:21:19;11.20;99.90
21306;DHT22;10812;51.838;5.838;2023-04-01T15:23:57;11.20;99.90
21306;DHT22;10812;51.838;5.838;2023-04-01T15:26:42;11.30;99.90
21306;DHT22;10812;51.838;5.838;2023-04-01T15:29:30;11.30;99.90
21306;DHT22;10812;51.838;5.838;2023-04-01T15:32:02;11.30;99.90
21306;DHT22;10812;51.838;5.838;2023-04-01T15:34:35;11.40;99.90
21306;DHT22;10812;51.838;5.838;2023-04-01T15:37:12;11.40;99.90
21306;DHT22;10812;51.838;5.838;2023-04-01T15:39:54;11.40;99.90
21306;DHT22;10812;51.838;5.838;2023-04-01T15:42:39;11.50;99.90
21306;DHT22;10812;51.838;5.838;2023-04-01T15:45:29;11.50;99.90
21306;DHT22;10812;51.838;5.838;2023-04-01T15:48:11;11.50;99.90
21306;DHT22;10812;51.838;5.838;2023-04-01T15:50:49;11.50;99.90
21306;DHT22;10812;51.838;5.838;2023-04-01T15:56:23;11.40;99.90
21306;DHT22;10812;51.838;5.838;2023-04-01T15:59:04;11.40;99.90
21306;DHT22;10812;51.838;5.838;2023-04-01T16:01:45;11.30;99.90
21306;DHT22;10812;51.838;5.838;2023-04-01T16:04:44;11.20;99.90
21306;DHT22;10812;51.838;5.838;2023-04-01T16:07:26;11.10;99.90
21306;DHT22;10812;51.838;5.838;2023-04-01T16:10:06;11.10;99.90
21306;DHT22;10812;51.838;5.838;2023-04-01T16:12:48;11.10;99.90
21306;DHT22;10812;51.838;5.838;2023-04-01T16:15:26;11.10;99.90
21306;DHT22;10812;51.838;5.838;2023-04-01T16:18:16;11.10;99.90
21306;DHT22;10812;51.838;5.838;2023-04-01T16:20:53;11.00;99.90
21306;DHT22;10812;51.838;5.838;2023-04-01T16:23:29;11.00;99.90
21306;DHT22;10812;51.838;5.838;2023-04-01T16:26:05;10.90;99.90
21306;DHT22;10812;51.838;5.838;2023-04-01T16:28:40;10.90;99.90
21306;DHT22;10812;51.838;5.838;2023-04-01T16:31:15;10.90;99.90
21306;DHT22;10812;51.838;5.838;2023-04-01T16:33:49;10.90;99.90
21306;DHT22;10812;51.838;5.838;2023-04-01T16:36:26;11.00;99.90
21306;DHT22;10812;51.838;5.838;2023-04-01T16:39:08;10.90;99.90
21306;DHT22;10812;51.838;5.838;2023-04-01T16:41:48;10.90;99.90
21306;DHT22;10812;51.838;5.838;2023-04-01T16:44:19;10.90;99.90
21306;DHT22;10812;51.838;5.838;2023-04-01T16:46:50;10.90;99.90
21306;DHT22;10812;51.838;5.838;2023-04-01T16:49:30;10.90;99.90
21306;DHT22;10812;51.838;5.838;2023-04-01T16:52:14;10.80;99.90
21306;DHT22;10812;51.838;5.838;2023-04-01T16:54:47;10.90;99.90
21306;DHT22;10812;51.838;5.838;2023-04-01T16:57:23;10.80;99.90
21306;DHT22;10812;51.838;5.838;2023-04-01T17:00:00;10.70;99.90
21306;DHT22;10812;51.838;5.838;2023-04-01T17:02:33;10.70;99.90
21306;DHT22;10812;51.838;5.838;2023-04-01T17:05:06;10.70;99.90
21306;DHT22;10812;51.838;5.838;2023-04-01T17:07:44;10.70;99.90
21306;DHT22;10812;51.838;5.838;2023-04-01T17:10:31;10.70;99.90
21306;DHT22;10812;51.838;5.838;2023-04-01T17:13:19;10.70;99.90
21306;DHT22;10812;51.838;5.838;2023-04-01T17:16:01;10.70;99.90
21306;DHT22;10812;51.838;5.838;2023-04-01T17:18:37;10.60;99.90
21306;DHT22;10812;51.838;5.838;2023-04-01T17:21:13;10.50;99.90
21306;DHT22;10812;51.838;5.838;2023-04-01T17:23:50;10.50;99.90
21306;DHT22;10812;51.838;5.838;2023-04-01T17:26:28;10.40;99.90
21306;DHT22;10812;51.838;5.838;2023-04-01T17:29:09;10.40;99.90
21306;DHT22;10812;51.838;5.838;2023-04-01T17:31:46;10.40;99.90
21306;DHT22;10812;51.838;5.838;2023-04-01T17:34:32;10.40;99.90
21306;DHT22;10812;51.838;5.838;2023-04-01T17:37:22;10.30;99.90
21306;DHT22;10812;51.838;5.838;2023-04-01T17:40:06;10.30;99.90
21306;DHT22;10812;51.838;5.838;2023-04-01T17:42:42;10.20;99.90
21306;DHT22;10812;51.838;5.838;2023-04-01T17:45:22;10.10;99.90
21306;DHT22;10812;51.838;5.838;2023-04-01T17:48:03;10.10;99.90
21306;DHT22;10812;51.838;5.838;2023-04-01T17:50:47;10.10;99.90
21306;DHT22;10812;51.838;5.838;2023-04-01T17:53:29;10.00;99.90
21306;DHT22;10812;51.838;5.838;2023-04-01T17:56:08;10.00;99.90
21306;DHT22;10812;51.838;5.838;2023-04-01T17:58:45;10.00;99.90
21306;DHT22;10812;51.838;5.838;2023-04-01T18:04:10;9.90;99.90
21306;DHT22;10812;51.838;5.838;2023-04-01T18:09:40;9.90;99.90
21306;DHT22;10812;51.838;5.838;2023-04-01T18:12:20;9.90;99.90
21306;DHT22;10812;51.838;5.838;2023-04-01T18:15:00;9.80;99.90
21306;DHT22;10812;51.838;5.838;2023-04-01T18:17:41;9.80;99.90